sensor_id;sensor_type;location;lat;lon;timestamp;pressure;altitude;pressure_sealevel;temperature;humidity
41254;BME280;26987;59.928;30.306;2022-07-11T00:00:36;100939.94;;;16.00;100.00
41254;BME280;26987;59.928;30.306;2022-07-11T00:03:05;100954.53;;;15.99;100.00
41254;BME280;26987;59.928;30.306;2022-07-11T00:05:35;100963.22;;;16.01;100.00
41254;BME280;26987;59.928;30.306;2022-07-11T00:08:06;100969.69;;;16.00;100.00
41254;BME280;26987;59.928;30.306;2022-07-11T00:10:34;100972.63;;;15.99;100.00
41254;BME280;26987;59.928;30.306;2022-07-11T00:13:02;100970.59;;;15.94;100.00
41254;BME280;26987;59.928;30.306;2022-07-11T00:15:29;100965.44;;;15.93;100.00
41254;BME280;26987;59.928;30.306;2022-07-11T00:17:57;100963.44;;;15.88;100.00
41254;BME280;26987;59.928;30.306;2022-07-11T00:20:25;100967.78;;;15.89;100.00
41254;BME280;26987;59.928;30.306;2022-07-11T00:22:55;100970.38;;;15.84;100.00
41254;BME280;26987;59.928;30.306;2022-07-11T00:25:23;100974.94;;;15.83;100.00
41254;BME280;26987;59.928;30.306;2022-07-11T00:27:51;100936.56;;;15.57;100.00
41254;BME280;26987;59.928;30.306;2022-07-11T00:30:19;100973.19;;;15.77;100.00
41254;BME280;26987;59.928;30.306;2022-07-11T00:32:46;100959.91;;;15.75;100.00
41254;BME280;26987;59.928;30.306;2022-07-11T00:35:15;100953.00;;;15.68;100.00
41254;BME280;26987;59.928;30.306;2022-07-11T00:37:43;100958.97;;;15.70;100.00
41254;BME280;26987;59.928;30.306;2022-07-11T00:40:12;100955.81;;;15.73;100.00
41254;BME280;26987;59.928;30.306;2022-07-11T00:42:40;100949.47;;;15.67;100.00
41254;BME280;26987;59.928;30.306;2022-07-11T00:45:10;100942.91;;;15.63;100.00
41254;BME280;26987;59.928;30.306;2022-07-11T00:47:39;100980.84;;;15.68;100.00
41254;BME280;26987;59.928;30.306;2022-07-11T00:50:11;100961.34;;;15.66;100.00
41254;BME280;26987;59.928;30.306;2022-07-11T00:52:40;100935.59;;;15.51;100.00
41254;BME280;26987;59.928;30.306;2022-07-11T00:55:12;100949.25;;;15.57;100.00
41254;BME280;26987;59.928;30.306;2022-07-11T00:57:42;100953.25;;;15.54;100.00
41254;BME280;26987;59.928;30.306;2022-07-11T01:00:12;100964.63;;;15.56;100.00
41254;BME280;26987;59.928;30.306;2022-07-11T01:02:41;100919.63;;;15.26;100.00
41254;BME280;26987;59.928;30.306;2022-07-11T01:05:10;100966.38;;;15.50;100.00
41254;BME280;26987;59.928;30.306;2022-07-11T01:07:39;100901.63;;;15.08;100.00
41254;BME280;26987;59.928;30.306;2022-07-11T01:10:08;100964.38;;;15.46;100.00
41254;BME280;26987;59.928;30.306;2022-07-11T01:12:39;100940.31;;;15.32;100.00
41254;BME280;26987;59.928;30.306;2022-07-11T01:15:08;100971.66;;;15.45;100.00
41254;BME280;26987;59.928;30.306;2022-07-11T01:17:37;100983.06;;;15.47;100.00
41254;BME280;26987;59.928;30.306;2022-07-11T01:20:06;100985.78;;;15.47;100.00
41254;BME280;26987;59.928;30.306;2022-07-11T01:22:36;100993.66;;;15.49;100.00
41254;BME280;26987;59.928;30.306;2022-07-11T01:25:08;100991.53;;;15.51;100.00
41254;BME280;26987;59.928;30.306;2022-07-11T01:27:36;101007.16;;;15.49;100.00
41254;BME280;26987;59.928;30.306;2022-07-11T01:30:05;101011.38;;;15.45;100.00
41254;BME280;26987;59.928;30.306;2022-07-11T01:32:33;101009.03;;;15.48;100.00
41254;BME280;26987;59.928;30.306;2022-07-11T01:35:01;100995.97;;;15.45;100.00
41254;BME280;26987;59.928;30.306;2022-07-11T01:37:28;101001.97;;;15.47;100.00
41254;BME280;26987;59.928;30.306;2022-07-11T01:39:56;100984.84;;;15.42;100.00
41254;BME280;26987;59.928;30.306;2022-07-11T01:42:26;100992.81;;;15.48;100.00
41254;BME280;26987;59.928;30.306;2022-07-11T01:44:54;100998.22;;;15.48;100.00
41254;BME280;26987;59.928;30.306;2022-07-11T01:47:22;100992.34;;;15.51;100.00
41254;BME280;26987;59.928;30.306;2022-07-11T01:49:49;100989.78;;;15.57;100.00
41254;BME280;26987;59.928;30.306;2022-07-11T01:52:17;100990.94;;;15.61;100.00
41254;BME280;26987;59.928;30.306;2022-07-11T01:54:45;100981.31;;;15.65;100.00
41254;BME280;26987;59.928;30.306;2022-07-11T01:57:14;100980.50;;;15.76;100.00
41254;BME280;26987;59.928;30.306;2022-07-11T01:59:43;100991.63;;;15.92;100.00
41254;BME280;26987;59.928;30.306;2022-07-11T02:02:11;100981.16;;;16.20;100.00
41254;BME280;26987;59.928;30.306;2022-07-11T02:04:39;100986.66;;;16.37;100.00
41254;BME280;26987;59.928;30.306;2022-07-11T02:07:07;100978.47;;;16.61;100.00
41254;BME280;26987;59.928;30.306;2022-07-11T02:09:37;100976.47;;;17.02;100.00
41254;BME280;26987;59.928;30.306;2022-07-11T02:12:06;100949.91;;;17.34;100.00
41254;BME280;26987;59.928;30.306;2022-07-11T02:14:34;100942.06;;;17.94;100.00
41254;BME280;26987;59.928;30.306;2022-07-11T02:17:04;100962.53;;;18.47;100.00
41254;BME280;26987;59.928;30.306;2022-07-11T02:19:32;100967.25;;;18.57;98.21
41254;BME280;26987;59.928;30.306;2022-07-11T02:22:00;100971.34;;;18.59;97.34
41254;BME280;26987;59.928;30.306;2022-07-11T02:24:32;100982.28;;;18.64;96.79
41254;BME280;26987;59.928;30.306;2022-07-11T02:27:00;100983.59;;;18.62;96.03
41254;BME280;26987;59.928;30.306;2022-07-11T02:29:28;100971.94;;;18.61;95.94
41254;BME280;26987;59.928;30.306;2022-07-11T02:31:56;100963.97;;;18.55;96.11
41254;BME280;26987;59.928;30.306;2022-07-11T02:34:25;100956.44;;;18.62;94.77
41254;BME280;26987;59.928;30.306;2022-07-11T02:36:53;100961.75;;;19.07;93.27
41254;BME280;26987;59.928;30.306;2022-07-11T02:39:21;100979.63;;;19.68;90.00
41254;BME280;26987;59.928;30.306;2022-07-11T02:41:50;100981.56;;;20.26;86.00
41254;BME280;26987;59.928;30.306;2022-07-11T02:44:19;100979.69;;;20.42;84.48
41254;BME280;26987;59.928;30.306;2022-07-11T02:46:47;100981.59;;;20.37;84.13
41254;BME280;26987;59.928;30.306;2022-07-11T02:49:15;100981.88;;;20.46;83.15
41254;BME280;26987;59.928;30.306;2022-07-11T02:51:45;100986.66;;;21.13;79.82
41254;BME280;26987;59.928;30.306;2022-07-11T02:54:16;100987.31;;;22.12;74.98
41254;BME280;26987;59.928;30.306;2022-07-11T02:56:45;100951.81;;;22.68;71.13
41254;BME280;26987;59.928;30.306;2022-07-11T02:59:14;101001.06;;;23.87;67.54
41254;BME280;26987;59.928;30.306;2022-07-11T03:01:45;100995.34;;;24.08;65.43
41254;BME280;26987;59.928;30.306;2022-07-11T03:04:14;101012.28;;;24.34;63.60
41254;BME280;26987;59.928;30.306;2022-07-11T03:06:44;100976.94;;;24.38;62.52
41254;BME280;26987;59.928;30.306;2022-07-11T03:09:13;101004.72;;;24.89;61.26
41254;BME280;26987;59.928;30.306;2022-07-11T03:11:41;100994.19;;;25.29;59.53
41254;BME280;26987;59.928;30.306;2022-07-11T03:14:13;101003.41;;;26.23;56.00
41254;BME280;26987;59.928;30.306;2022-07-11T03:16:41;100997.16;;;26.60;54.51
41254;BME280;26987;59.928;30.306;2022-07-11T03:19:10;101002.78;;;26.77;52.85
41254;BME280;26987;59.928;30.306;2022-07-11T03:21:40;101010.81;;;27.33;51.54
41254;BME280;26987;59.928;30.306;2022-07-11T03:24:10;100983.72;;;27.58;50.02
41254;BME280;26987;59.928;30.306;2022-07-11T03:26:38;101021.34;;;28.21;48.76
41254;BME280;26987;59.928;30.306;2022-07-11T03:29:10;101009.16;;;28.14;47.79
41254;BME280;26987;59.928;30.306;2022-07-11T03:31:39;101029.09;;;28.11;47.90
41254;BME280;26987;59.928;30.306;2022-07-11T03:34:08;101023.19;;;28.44;47.00
41254;BME280;26987;59.928;30.306;2022-07-11T03:36:37;101031.72;;;28.16;47.09
41254;BME280;26987;59.928;30.306;2022-07-11T03:39:06;101017.69;;;28.44;46.66
41254;BME280;26987;59.928;30.306;2022-07-11T03:41:36;101014.94;;;28.70;45.92
41254;BME280;26987;59.928;30.306;2022-07-11T03:44:10;101010.38;;;28.92;45.32
41254;BME280;26987;59.928;30.306;2022-07-11T03:46:39;101019.97;;;29.13;45.26
41254;BME280;26987;59.928;30.306;2022-07-11T03:49:07;100990.94;;;28.98;45.03
41254;BME280;26987;59.928;30.306;2022-07-11T03:51:39;101027.44;;;28.68;45.80
41254;BME280;26987;59.928;30.306;2022-07-11T03:54:09;101018.50;;;27.77;47.49
41254;BME280;26987;59.928;30.306;2022-07-11T03:56:40;101023.69;;;27.24;49.31
41254;BME280;26987;59.928;30.306;2022-07-11T03:59:08;100984.41;;;25.85;52.10
41254;BME280;26987;59.928;30.306;2022-07-11T04:01:40;101009.50;;;25.16;54.91
41254;BME280;26987;59.928;30.306;2022-07-11T04:04:11;101000.91;;;24.85;56.54
41254;BME280;26987;59.928;30.306;2022-07-11T04:06:40;100997.75;;;24.77;57.18
41254;BME280;26987;59.928;30.306;2022-07-11T04:09:12;101028.69;;;25.16;56.37
41254;BME280;26987;59.928;30.306;2022-07-11T04:11:45;101038.72;;;25.54;55.67
41254;BME280;26987;59.928;30.306;2022-07-11T04:14:14;101003.00;;;26.16;52.99
41254;BME280;26987;59.928;30.306;2022-07-11T04:16:42;100998.00;;;26.46;51.49
41254;BME280;26987;59.928;30.306;2022-07-11T04:19:11;101031.63;;;27.03;50.40
41254;BME280;26987;59.928;30.306;2022-07-11T04:21:42;100984.63;;;27.77;47.43
41254;BME280;26987;59.928;30.306;2022-07-11T04:24:10;101035.41;;;28.87;45.92
41254;BME280;26987;59.928;30.306;2022-07-11T04:26:38;101023.13;;;29.50;44.00
41254;BME280;26987;59.928;30.306;2022-07-11T04:29:08;101038.13;;;30.09;42.92
41254;BME280;26987;59.928;30.306;2022-07-11T04:31:36;101036.25;;;30.31;42.02
41254;BME280;26987;59.928;30.306;2022-07-11T04:34:04;101033.78;;;31.15;40.65
41254;BME280;26987;59.928;30.306;2022-07-11T04:36:34;101042.59;;;31.76;39.16
41254;BME280;26987;59.928;30.306;2022-07-11T04:39:02;101042.47;;;31.85;38.84
41254;BME280;26987;59.928;30.306;2022-07-11T04:41:30;101051.47;;;31.57;39.13
41254;BME280;26987;59.928;30.306;2022-07-11T04:43:59;101040.50;;;30.71;40.85
41254;BME280;26987;59.928;30.306;2022-07-11T04:46:28;101048.22;;;30.66;40.95
41254;BME280;26987;59.928;30.306;2022-07-11T04:48:58;101034.22;;;31.39;39.83
41254;BME280;26987;59.928;30.306;2022-07-11T04:51:26;101036.34;;;31.92;38.61
41254;BME280;26987;59.928;30.306;2022-07-11T04:53:54;101037.88;;;32.02;38.31
41254;BME280;26987;59.928;30.306;2022-07-11T04:56:25;101033.88;;;32.40;37.66
41254;BME280;26987;59.928;30.306;2022-07-11T04:58:53;101050.97;;;32.83;36.43
41254;BME280;26987;59.928;30.306;2022-07-11T05:01:22;101038.53;;;32.77;36.63
41254;BME280;26987;59.928;30.306;2022-07-11T05:03:53;101036.31;;;33.12;36.06
41254;BME280;26987;59.928;30.306;2022-07-11T05:06:23;101043.59;;;33.32;35.33
41254;BME280;26987;59.928;30.306;2022-07-11T05:08:56;101032.59;;;33.52;34.50
41254;BME280;26987;59.928;30.306;2022-07-11T05:11:27;101055.94;;;32.49;36.04
41254;BME280;26987;59.928;30.306;2022-07-11T05:13:57;101023.16;;;31.39;38.25
41254;BME280;26987;59.928;30.306;2022-07-11T05:16:26;101012.91;;;31.05;38.28
41254;BME280;26987;59.928;30.306;2022-07-11T05:18:58;101025.06;;;31.97;37.34
41254;BME280;26987;59.928;30.306;2022-07-11T05:21:29;101038.53;;;31.86;37.32
41254;BME280;26987;59.928;30.306;2022-07-11T05:24:01;101028.28;;;31.28;37.76
41254;BME280;26987;59.928;30.306;2022-07-11T05:26:31;101035.06;;;31.18;38.70
41254;BME280;26987;59.928;30.306;2022-07-11T05:28:59;101024.25;;;29.97;39.93
41254;BME280;26987;59.928;30.306;2022-07-11T05:31:28;101039.78;;;29.06;41.94
41254;BME280;26987;59.928;30.306;2022-07-11T05:33:59;101039.28;;;28.60;42.65
41254;BME280;26987;59.928;30.306;2022-07-11T05:36:27;101040.63;;;28.13;43.44
41254;BME280;26987;59.928;30.306;2022-07-11T05:38:55;101042.56;;;27.72;44.33
41254;BME280;26987;59.928;30.306;2022-07-11T05:41:23;101044.66;;;27.66;44.27
41254;BME280;26987;59.928;30.306;2022-07-11T05:43:51;101039.78;;;27.40;45.38
41254;BME280;26987;59.928;30.306;2022-07-11T05:46:19;101048.44;;;27.47;45.48
41254;BME280;26987;59.928;30.306;2022-07-11T05:48:47;101048.97;;;27.58;45.89
41254;BME280;26987;59.928;30.306;2022-07-11T05:51:16;101060.03;;;28.57;44.07
41254;BME280;26987;59.928;30.306;2022-07-11T05:53:45;101054.09;;;28.99;43.32
41254;BME280;26987;59.928;30.306;2022-07-11T05:56:13;101043.16;;;29.29;42.44
41254;BME280;26987;59.928;30.306;2022-07-11T05:58:41;101051.50;;;30.07;41.45
41254;BME280;26987;59.928;30.306;2022-07-11T06:01:09;101047.25;;;31.04;39.27
41254;BME280;26987;59.928;30.306;2022-07-11T06:03:38;101061.63;;;31.31;38.23
41254;BME280;26987;59.928;30.306;2022-07-11T06:06:08;101065.81;;;31.84;37.37
41254;BME280;26987;59.928;30.306;2022-07-11T06:08:39;101058.19;;;31.81;37.29
41254;BME280;26987;59.928;30.306;2022-07-11T06:11:12;101067.31;;;32.06;36.47
41254;BME280;26987;59.928;30.306;2022-07-11T06:13:42;101060.44;;;32.41;35.78
41254;BME280;26987;59.928;30.306;2022-07-11T06:16:12;101065.09;;;31.75;36.82
41254;BME280;26987;59.928;30.306;2022-07-11T06:18:40;101066.81;;;31.92;36.76
41254;BME280;26987;59.928;30.306;2022-07-11T06:21:08;101068.72;;;32.79;35.29
41254;BME280;26987;59.928;30.306;2022-07-11T06:23:35;101068.41;;;32.55;35.47
41254;BME280;26987;59.928;30.306;2022-07-11T06:26:05;101081.44;;;33.08;34.94
41254;BME280;26987;59.928;30.306;2022-07-11T06:28:33;101077.97;;;32.70;34.87
41254;BME280;26987;59.928;30.306;2022-07-11T06:31:01;101073.75;;;32.61;35.43
41254;BME280;26987;59.928;30.306;2022-07-11T06:33:30;101071.47;;;32.13;35.78
41254;BME280;26987;59.928;30.306;2022-07-11T06:35:58;101070.75;;;32.41;35.83
41254;BME280;26987;59.928;30.306;2022-07-11T06:38:25;101064.13;;;32.58;34.75
41254;BME280;26987;59.928;30.306;2022-07-11T06:40:55;101072.88;;;32.72;34.73
41254;BME280;26987;59.928;30.306;2022-07-11T06:43:24;101069.91;;;32.65;35.26
41254;BME280;26987;59.928;30.306;2022-07-11T06:45:52;101071.66;;;32.45;35.35
41254;BME280;26987;59.928;30.306;2022-07-11T06:48:21;101082.53;;;32.91;33.63
41254;BME280;26987;59.928;30.306;2022-07-11T06:50:48;101082.28;;;32.55;34.70
41254;BME280;26987;59.928;30.306;2022-07-11T06:53:16;101081.38;;;32.39;35.03
41254;BME280;26987;59.928;30.306;2022-07-11T06:55:44;101079.22;;;31.94;35.72
41254;BME280;26987;59.928;30.306;2022-07-11T06:58:12;101086.84;;;31.51;36.99
41254;BME280;26987;59.928;30.306;2022-07-11T07:01:02;101076.16;;;31.62;37.36
41254;BME280;26987;59.928;30.306;2022-07-11T07:03:32;101065.81;;;31.38;37.52
41254;BME280;26987;59.928;30.306;2022-07-11T07:06:00;101066.00;;;30.34;38.77
41254;BME280;26987;59.928;30.306;2022-07-11T07:08:29;101077.91;;;29.30;41.39
41254;BME280;26987;59.928;30.306;2022-07-11T07:10:57;101058.75;;;28.81;42.02
41254;BME280;26987;59.928;30.306;2022-07-11T07:13:25;101067.38;;;28.21;43.33
41254;BME280;26987;59.928;30.306;2022-07-11T07:15:56;101030.84;;;27.89;44.18
41254;BME280;26987;59.928;30.306;2022-07-11T07:18:26;101080.72;;;27.32;45.38
41254;BME280;26987;59.928;30.306;2022-07-11T07:20:55;101069.72;;;26.58;46.45
41254;BME280;26987;59.928;30.306;2022-07-11T07:23:24;101056.72;;;25.94;48.64
41254;BME280;26987;59.928;30.306;2022-07-11T07:25:53;101081.59;;;25.69;51.01
41254;BME280;26987;59.928;30.306;2022-07-11T07:28:22;101077.06;;;25.26;50.44
41254;BME280;26987;59.928;30.306;2022-07-11T07:30:51;101081.50;;;24.84;53.74
41254;BME280;26987;59.928;30.306;2022-07-11T07:33:20;101072.66;;;24.92;52.54
41254;BME280;26987;59.928;30.306;2022-07-11T07:35:58;101074.69;;;24.62;55.32
41254;BME280;26987;59.928;30.306;2022-07-11T07:38:27;101013.31;;;24.19;54.79
41254;BME280;26987;59.928;30.306;2022-07-11T07:40:56;101052.91;;;24.02;55.97
41254;BME280;26987;59.928;30.306;2022-07-11T07:43:25;101078.31;;;23.84;54.55
41254;BME280;26987;59.928;30.306;2022-07-11T07:45:53;101073.63;;;23.54;56.60
41254;BME280;26987;59.928;30.306;2022-07-11T07:48:21;101079.25;;;23.39;57.83
41254;BME280;26987;59.928;30.306;2022-07-11T07:50:49;101077.34;;;23.34;59.08
41254;BME280;26987;59.928;30.306;2022-07-11T07:53:18;101074.59;;;23.39;59.57
41254;BME280;26987;59.928;30.306;2022-07-11T07:55:46;101075.13;;;23.36;59.88
41254;BME280;26987;59.928;30.306;2022-07-11T07:58:15;101079.75;;;23.41;60.05
41254;BME280;26987;59.928;30.306;2022-07-11T08:00:44;101079.41;;;23.53;58.86
41254;BME280;26987;59.928;30.306;2022-07-11T08:03:30;101086.63;;;23.38;58.41
41254;BME280;26987;59.928;30.306;2022-07-11T08:05:59;101094.97;;;23.17;59.46
41254;BME280;26987;59.928;30.306;2022-07-11T08:08:29;101093.00;;;23.23;58.52
41254;BME280;26987;59.928;30.306;2022-07-11T08:10:58;101108.88;;;23.21;58.81
41254;BME280;26987;59.928;30.306;2022-07-11T08:13:29;101054.38;;;22.95;58.18
41254;BME280;26987;59.928;30.306;2022-07-11T08:15:57;101052.22;;;22.87;58.60
41254;BME280;26987;59.928;30.306;2022-07-11T08:18:26;101047.53;;;22.98;59.13
41254;BME280;26987;59.928;30.306;2022-07-11T08:20:55;101077.22;;;23.15;57.59
41254;BME280;26987;59.928;30.306;2022-07-11T08:23:24;101070.63;;;23.16;57.51
41254;BME280;26987;59.928;30.306;2022-07-11T08:25:55;101068.19;;;23.14;58.20
41254;BME280;26987;59.928;30.306;2022-07-11T08:28:23;101077.66;;;23.27;58.39
41254;BME280;26987;59.928;30.306;2022-07-11T08:30:53;101084.16;;;23.42;59.07
41254;BME280;26987;59.928;30.306;2022-07-11T08:33:21;101064.75;;;23.33;59.20
41254;BME280;26987;59.928;30.306;2022-07-11T08:35:51;101066.41;;;23.34;58.79
41254;BME280;26987;59.928;30.306;2022-07-11T08:38:23;101088.44;;;23.53;56.86
41254;BME280;26987;59.928;30.306;2022-07-11T08:40:53;101072.81;;;23.19;56.84
41254;BME280;26987;59.928;30.306;2022-07-11T08:43:26;101029.94;;;22.69;56.86
41254;BME280;26987;59.928;30.306;2022-07-11T08:45:55;101095.91;;;22.97;57.65
41254;BME280;26987;59.928;30.306;2022-07-11T08:48:24;101094.81;;;22.98;56.83
41254;BME280;26987;59.928;30.306;2022-07-11T08:50:52;101096.97;;;23.01;56.89
41254;BME280;26987;59.928;30.306;2022-07-11T08:53:20;101104.94;;;22.98;57.91
41254;BME280;26987;59.928;30.306;2022-07-11T08:55:48;101108.25;;;22.89;59.62
41254;BME280;26987;59.928;30.306;2022-07-11T08:58:18;101112.47;;;22.71;59.46
41254;BME280;26987;59.928;30.306;2022-07-11T09:00:46;101101.31;;;22.41;60.54
41254;BME280;26987;59.928;30.306;2022-07-11T09:03:18;101092.94;;;22.12;61.94
41254;BME280;26987;59.928;30.306;2022-07-11T09:05:51;101104.41;;;22.19;61.75
41254;BME280;26987;59.928;30.306;2022-07-11T09:08:21;101100.06;;;22.02;62.08
41254;BME280;26987;59.928;30.306;2022-07-11T09:10:52;101111.78;;;22.13;62.81
41254;BME280;26987;59.928;30.306;2022-07-11T09:13:27;101072.25;;;21.69;63.90
41254;BME280;26987;59.928;30.306;2022-07-11T09:16:03;101119.44;;;21.70;65.93
41254;BME280;26987;59.928;30.306;2022-07-11T09:18:34;101081.53;;;21.16;66.68
41254;BME280;26987;59.928;30.306;2022-07-11T09:21:05;101094.34;;;21.26;67.99
41254;BME280;26987;59.928;30.306;2022-07-11T09:23:53;101102.00;;;21.45;67.19
41254;BME280;26987;59.928;30.306;2022-07-11T09:26:40;101096.81;;;21.38;68.83
41254;BME280;26987;59.928;30.306;2022-07-11T09:29:12;101110.44;;;21.59;71.01
41254;BME280;26987;59.928;30.306;2022-07-11T09:31:42;101100.59;;;21.32;72.73
41254;BME280;26987;59.928;30.306;2022-07-11T09:34:13;101127.59;;;21.33;74.25
41254;BME280;26987;59.928;30.306;2022-07-11T09:36:46;101122.41;;;21.16;76.33
41254;BME280;26987;59.928;30.306;2022-07-11T09:39:17;101133.00;;;21.02;78.37
41254;BME280;26987;59.928;30.306;2022-07-11T09:41:46;101135.38;;;20.88;79.47
41254;BME280;26987;59.928;30.306;2022-07-11T09:44:18;101139.13;;;20.71;79.00
41254;BME280;26987;59.928;30.306;2022-07-11T09:46:49;101137.34;;;20.44;79.66
41254;BME280;26987;59.928;30.306;2022-07-11T09:49:29;101136.78;;;20.37;81.65
41254;BME280;26987;59.928;30.306;2022-07-11T09:52:08;101144.81;;;20.16;82.70
41254;BME280;26987;59.928;30.306;2022-07-11T09:54:52;101143.66;;;20.07;83.44
41254;BME280;26987;59.928;30.306;2022-07-11T09:57:29;101148.00;;;20.02;84.48
41254;BME280;26987;59.928;30.306;2022-07-11T09:59:59;101136.22;;;19.97;84.31
41254;BME280;26987;59.928;30.306;2022-07-11T10:02:31;101149.63;;;20.03;83.07
41254;BME280;26987;59.928;30.306;2022-07-11T10:05:01;101150.72;;;20.02;85.67
41254;BME280;26987;59.928;30.306;2022-07-11T10:07:29;101150.72;;;20.02;87.50
41254;BME280;26987;59.928;30.306;2022-07-11T10:09:58;101158.25;;;19.95;88.91
41254;BME280;26987;59.928;30.306;2022-07-11T10:12:27;101153.16;;;19.71;90.64
41254;BME280;26987;59.928;30.306;2022-07-11T10:15:00;101151.91;;;19.51;90.54
41254;BME280;26987;59.928;30.306;2022-07-11T10:17:40;101143.94;;;19.45;90.88
41254;BME280;26987;59.928;30.306;2022-07-11T10:20:16;101144.56;;;19.24;94.31
41254;BME280;26987;59.928;30.306;2022-07-11T10:22:51;101149.75;;;19.03;97.81
41254;BME280;26987;59.928;30.306;2022-07-11T10:25:28;101150.88;;;18.85;92.42
41254;BME280;26987;59.928;30.306;2022-07-11T10:28:24;101152.97;;;18.78;93.79
41254;BME280;26987;59.928;30.306;2022-07-11T10:30:54;101156.38;;;18.68;91.60
41254;BME280;26987;59.928;30.306;2022-07-11T10:33:27;101151.06;;;18.78;90.91
41254;BME280;26987;59.928;30.306;2022-07-11T10:35:55;101148.97;;;18.86;91.76
41254;BME280;26987;59.928;30.306;2022-07-11T10:38:24;101148.91;;;19.03;90.50
41254;BME280;26987;59.928;30.306;2022-07-11T10:40:56;101146.84;;;19.10;90.31
41254;BME280;26987;59.928;30.306;2022-07-11T10:43:35;101159.78;;;19.25;91.02
41254;BME280;26987;59.928;30.306;2022-07-11T10:46:08;101161.94;;;19.23;92.31
41254;BME280;26987;59.928;30.306;2022-07-11T10:48:55;101161.75;;;19.30;94.18
41254;BME280;26987;59.928;30.306;2022-07-11T10:51:27;101154.75;;;19.12;94.86
41254;BME280;26987;59.928;30.306;2022-07-11T10:54:12;101137.09;;;18.92;97.02
41254;BME280;26987;59.928;30.306;2022-07-11T10:57:13;101141.97;;;18.90;98.36
41254;BME280;26987;59.928;30.306;2022-07-11T10:59:59;101166.81;;;18.99;100.00
41254;BME280;26987;59.928;30.306;2022-07-11T11:02:30;101161.81;;;18.90;99.84
41254;BME280;26987;59.928;30.306;2022-07-11T11:05:00;101170.56;;;18.75;100.00
41254;BME280;26987;59.928;30.306;2022-07-11T11:07:40;101171.41;;;18.76;99.57
41254;BME280;26987;59.928;30.306;2022-07-11T11:13:21;101178.56;;;19.04;98.94
41254;BME280;26987;59.928;30.306;2022-07-11T11:15:53;101188.19;;;19.12;97.27
41254;BME280;26987;59.928;30.306;2022-07-11T11:18:44;101189.38;;;19.22;95.01
41254;BME280;26987;59.928;30.306;2022-07-11T11:21:24;101195.69;;;19.05;94.19
41254;BME280;26987;59.928;30.306;2022-07-11T11:24:07;101176.00;;;18.75;90.96
41254;BME280;26987;59.928;30.306;2022-07-11T11:26:44;101210.03;;;18.61;92.52
41254;BME280;26987;59.928;30.306;2022-07-11T11:29:21;101199.03;;;18.50;92.59
41254;BME280;26987;59.928;30.306;2022-07-11T11:31:53;101194.78;;;18.20;97.05
41254;BME280;26987;59.928;30.306;2022-07-11T11:34:24;101199.69;;;17.89;96.84
41254;BME280;26987;59.928;30.306;2022-07-11T11:36:58;101191.47;;;17.55;96.19
41254;BME280;26987;59.928;30.306;2022-07-11T11:39:33;101199.03;;;17.52;98.48
41254;BME280;26987;59.928;30.306;2022-07-11T11:42:07;101204.84;;;17.44;98.00
41254;BME280;26987;59.928;30.306;2022-07-11T11:44:47;101205.78;;;17.50;99.09
41254;BME280;26987;59.928;30.306;2022-07-11T11:47:16;101210.72;;;17.53;100.00
41254;BME280;26987;59.928;30.306;2022-07-11T11:49:46;101211.28;;;17.55;100.00
41254;BME280;26987;59.928;30.306;2022-07-11T11:52:16;101201.63;;;17.47;99.86
41254;BME280;26987;59.928;30.306;2022-07-11T11:54:50;101215.25;;;17.64;98.97
41254;BME280;26987;59.928;30.306;2022-07-11T11:57:20;101219.69;;;17.71;98.57
41254;BME280;26987;59.928;30.306;2022-07-11T11:59:49;101215.56;;;17.68;98.86
41254;BME280;26987;59.928;30.306;2022-07-11T12:02:24;101227.13;;;17.75;97.77
41254;BME280;26987;59.928;30.306;2022-07-11T12:04:55;101237.78;;;17.65;96.72
41254;BME280;26987;59.928;30.306;2022-07-11T12:07:27;101243.47;;;17.51;95.74
41254;BME280;26987;59.928;30.306;2022-07-11T12:09:57;101240.94;;;17.33;96.83
41254;BME280;26987;59.928;30.306;2022-07-11T12:12:27;101245.31;;;17.22;98.36
41254;BME280;26987;59.928;30.306;2022-07-11T12:15:29;101251.66;;;17.27;99.05
41254;BME280;26987;59.928;30.306;2022-07-11T12:18:03;101259.56;;;17.17;100.00
41254;BME280;26987;59.928;30.306;2022-07-11T12:20:37;101267.50;;;17.07;100.00
41254;BME280;26987;59.928;30.306;2022-07-11T12:23:11;101257.25;;;16.97;97.38
41254;BME280;26987;59.928;30.306;2022-07-11T12:25:41;101254.16;;;16.93;94.71
41254;BME280;26987;59.928;30.306;2022-07-11T12:28:13;101259.59;;;16.93;93.96
41254;BME280;26987;59.928;30.306;2022-07-11T12:30:43;101261.25;;;16.94;95.26
41254;BME280;26987;59.928;30.306;2022-07-11T12:33:14;101244.75;;;16.84;94.89
41254;BME280;26987;59.928;30.306;2022-07-11T12:35:56;101252.75;;;17.02;95.64
41254;BME280;26987;59.928;30.306;2022-07-11T12:38:46;101230.66;;;16.82;94.69
41254;BME280;26987;59.928;30.306;2022-07-11T12:41:18;101259.59;;;16.93;96.11
41254;BME280;26987;59.928;30.306;2022-07-11T12:43:48;101263.59;;;16.90;95.25
41254;BME280;26987;59.928;30.306;2022-07-11T12:46:35;101238.63;;;16.76;94.18
41254;BME280;26987;59.928;30.306;2022-07-11T12:49:05;101259.03;;;16.91;93.70
41254;BME280;26987;59.928;30.306;2022-07-11T12:51:37;101210.28;;;16.43;94.60
41254;BME280;26987;59.928;30.306;2022-07-11T12:54:09;101267.84;;;16.74;95.78
41254;BME280;26987;59.928;30.306;2022-07-11T12:56:39;101266.31;;;16.67;94.44
41254;BME280;26987;59.928;30.306;2022-07-11T12:59:20;101248.53;;;16.59;94.93